Time;durP1;ratioP1;P1;durP2;ratioP2;P2;SDS_P1;SDS_P2;PMS_P1;PMS_P2;Temp;Humidity;BMP_temperature;BMP_pressure;BME280_temperature;BME280_humidity;BME280_pressure;Samples;Min_cycle;Max_cycle;Signal;HPM_P1;HPM_P2
2023/07/23 00:00:35;;;;;;;4.30;2.60;;;;;;;15.79;100.00;99004.38;109399;1253;66375;-77
2023/07/23 00:03:02;;;;;;;3.60;2.90;;;;;;;15.78;100.00;99004.79;109433;1253;71457;-75
2023/07/23 00:05:30;;;;;;;9.80;2.90;;;;;;;15.76;100.00;99001.45;109454;1253;60728;-74
2023/07/23 00:07:58;;;;;;;2.60;2.40;;;;;;;15.74;100.00;99001.72;109467;1253;59974;-76
2023/07/23 00:10:25;;;;;;;3.30;2.90;;;;;;;15.72;100.00;99003.05;109467;1252;73866;-74
2023/07/23 00:12:53;;;;;;;3.50;3.20;;;;;;;15.71;100.00;98999.17;109424;1253;67721;-78
2023/07/23 00:15:20;;;;;;;4.20;2.90;;;;;;;15.70;100.00;99001.13;109382;1253;71396;-75
2023/07/23 00:17:47;;;;;;;4.10;3.10;;;;;;;15.67;100.00;99002.86;109412;1253;61683;-77
2023/07/23 00:20:15;;;;;;;3.80;3.40;;;;;;;15.65;100.00;98999.73;109477;1253;60067;-76
2023/07/23 00:22:43;;;;;;;3.10;2.80;;;;;;;15.64;100.00;99000.00;109408;1253;73987;-78
2023/07/23 00:25:10;;;;;;;3.00;2.70;;;;;;;15.63;100.00;99001.11;109428;1253;66299;-76
2023/07/23 00:27:38;;;;;;;3.80;3.50;;;;;;;15.64;100.00;98995.30;109449;1252;71773;-77
2023/07/23 00:30:06;;;;;;;6.40;3.40;;;;;;;15.65;100.00;98991.90;109368;1255;61745;-74
2023/07/23 00:32:34;;;;;;;4.00;2.70;;;;;;;15.68;100.00;98994.02;109439;1253;61827;-76
2023/07/23 00:35:02;;;;;;;3.30;3.00;;;;;;;15.71;100.00;98998.75;109271;1253;74697;-78
2023/07/23 00:37:31;;;;;;;2.90;2.70;;;;;;;15.75;100.00;98997.62;109331;1253;66401;-75
2023/07/23 00:39:59;;;;;;;4.10;2.80;;;;;;;15.77;100.00;98998.44;109488;1253;72015;-74
2023/07/23 00:42:27;;;;;;;5.40;3.30;;;;;;;15.78;100.00;98998.97;109425;1253;61645;-73
2023/07/23 00:44:55;;;;;;;3.10;2.70;;;;;;;15.80;100.00;98993.77;109506;1253;58498;-73
2023/07/23 00:47:22;;;;;;;5.00;3.60;;;;;;;15.79;100.00;98990.27;109401;1254;73847;-73
2023/07/23 00:49:50;;;;;;;3.40;3.10;;;;;;;15.78;100.00;98979.49;109276;1253;66576;-72
2023/07/23 00:52:18;;;;;;;5.00;3.20;;;;;;;15.78;100.00;98981.60;109278;1254;72313;-71
2023/07/23 00:54:45;;;;;;;6.20;3.20;;;;;;;15.80;100.00;98991.08;109291;1253;60460;-71
2023/07/23 00:57:12;;;;;;;4.10;3.10;;;;;;;15.80;100.00;98989.44;109246;1255;60029;-71
2023/07/23 00:59:40;;;;;;;5.30;3.50;;;;;;;15.80;100.00;98989.48;109473;1253;73748;-72
2023/07/23 01:02:07;;;;;;;4.50;3.00;;;;;;;15.81;100.00;98992.92;109258;1260;67744;-72
2023/07/23 01:04:35;;;;;;;4.30;3.70;;;;;;;15.81;100.00;98994.30;109517;1253;73006;-72
2023/07/23 01:07:04;;;;;;;4.60;3.30;;;;;;;15.81;100.00;98993.92;109461;1253;59994;-71
2023/07/23 01:09:32;;;;;;;4.50;3.60;;;;;;;15.82;100.00;98995.61;109272;1252;58821;-70
2023/07/23 01:12:00;;;;;;;4.40;3.50;;;;;;;15.82;100.00;98994.54;109154;1253;72624;-69
2023/07/23 01:14:28;;;;;;;4.50;3.20;;;;;;;15.83;100.00;98994.08;109243;1254;68053;-70
2023/07/23 01:16:56;;;;;;;6.60;3.30;;;;;;;15.85;100.00;98994.10;109396;1254;71088;-70
2023/07/23 01:19:26;;;;;;;5.60;3.90;;;;;;;15.87;100.00;98989.84;109274;1253;60400;-70
2023/07/23 01:21:58;;;;;;;4.40;3.20;;;;;;;15.88;100.00;98984.13;109468;1253;58831;-70
2023/07/23 01:24:26;;;;;;;6.10;3.30;;;;;;;15.86;100.00;98986.74;109292;1252;73914;-78
2023/07/23 01:26:53;;;;;;;6.60;2.70;;;;;;;15.86;100.00;98989.52;109499;1253;65875;-78
2023/07/23 01:29:20;;;;;;;4.50;3.50;;;;;;;15.84;100.00;98987.05;109411;1254;72447;-75
2023/07/23 01:31:48;;;;;;;3.50;2.80;;;;;;;15.84;100.00;98989.41;109273;1253;58997;-77
2023/07/23 01:34:15;;;;;;;4.20;3.70;;;;;;;15.85;100.00;98994.05;109498;1252;59169;-75
2023/07/23 01:36:43;;;;;;;3.70;3.40;;;;;;;15.86;100.00;98996.60;109266;1259;72970;-76
2023/07/23 01:39:10;;;;;;;4.80;3.30;;;;;;;15.85;100.00;99000.36;109493;1253;66552;-79
2023/07/23 01:41:38;;;;;;;4.00;3.10;;;;;;;15.82;100.00;99005.30;109509;1253;71889;-79
2023/07/23 01:44:05;;;;;;;4.30;3.90;;;;;;;15.79;100.00;99008.50;109307;1253;60384;-74
2023/07/23 01:46:32;;;;;;;3.90;3.10;;;;;;;15.76;100.00;99004.04;109408;1253;60112;-72
2023/07/23 01:49:00;;;;;;;3.90;3.50;;;;;;;15.74;100.00;99006.66;109470;1254;72659;-73
2023/07/23 01:51:28;;;;;;;4.10;3.50;;;;;;;15.73;100.00;99008.81;109487;1253;68155;-72
2023/07/23 01:53:56;;;;;;;4.60;3.30;;;;;;;15.71;100.00;99009.29;109361;1254;71463;-73
2023/07/23 01:56:23;;;;;;;4.70;3.20;;;;;;;15.65;100.00;99010.92;109510;1253;61671;-72
2023/07/23 01:58:51;;;;;;;4.00;2.90;;;;;;;15.62;100.00;99014.31;109269;1253;60053;-71
2023/07/23 02:01:18;;;;;;;4.60;3.30;;;;;;;15.59;100.00;99020.52;109297;1253;73859;-73
2023/07/23 02:03:46;;;;;;;3.40;3.10;;;;;;;15.54;100.00;99022.11;109409;1253;67286;-72
2023/07/23 02:06:13;;;;;;;4.70;3.20;;;;;;;15.49;100.00;99018.66;109503;1252;72698;-71
2023/07/23 02:08:41;;;;;;;3.90;3.30;;;;;;;15.48;100.00;99020.83;109439;1253;61684;-72
2023/07/23 02:11:08;;;;;;;4.20;3.80;;;;;;;15.47;100.00;99018.79;109412;1253;58772;-71
2023/07/23 02:13:36;;;;;;;4.60;3.60;;;;;;;15.49;100.00;99020.57;109489;1253;72116;-74
2023/07/23 02:16:03;;;;;;;4.40;3.00;;;;;;;15.49;100.00;99025.09;109505;1254;67747;-77
2023/07/23 02:18:31;;;;;;;4.20;3.30;;;;;;;15.49;100.00;99029.02;109271;1253;71403;-72
2023/07/23 02:20:59;;;;;;;6.20;3.50;;;;;;;15.50;100.00;99028.06;109345;1256;58795;-73
2023/07/23 02:23:26;;;;;;;4.00;3.40;;;;;;;15.50;100.00;99030.73;109353;1253;60251;-74
2023/07/23 02:25:54;;;;;;;7.70;3.40;;;;;;;15.48;100.00;99034.35;109366;1253;73458;-72
2023/07/23 02:28:21;;;;;;;4.60;3.30;;;;;;;15.45;100.00;99035.11;109388;1254;67611;-74
2023/07/23 02:30:59;;;;;;;4.60;3.30;;;;;;;15.36;100.00;99039.26;109422;1253;72716;-71
2023/07/23 02:33:26;;;;;;;7.70;2.90;;;;;;;15.31;100.00;99043.80;109347;1253;61804;-74
2023/07/23 02:35:54;;;;;;;3.50;2.80;;;;;;;15.35;100.00;99045.65;109225;1253;60232;-73
2023/07/23 02:38:21;;;;;;;3.30;3.00;;;;;;;15.34;100.00;99047.91;109361;1253;73838;-73
2023/07/23 02:40:54;;;;;;;3.80;3.10;;;;;;;15.32;100.00;99049.37;109357;1253;66866;-75
2023/07/23 02:43:21;;;;;;;3.60;3.20;;;;;;;15.40;100.00;99052.73;109280;1253;72643;-75
2023/07/23 02:45:49;;;;;;;3.80;3.40;;;;;;;15.43;100.00;99055.23;109348;1257;61771;-74
2023/07/23 02:48:16;;;;;;;3.00;2.70;;;;;;;15.49;100.00;99060.58;109422;1254;60022;-73
2023/07/23 02:50:44;;;;;;;6.00;3.30;;;;;;;15.55;100.00;99054.73;109465;1253;73955;-73
2023/07/23 02:53:11;;;;;;;3.10;2.80;;;;;;;15.57;100.00;99057.31;109457;1252;67871;-73
2023/07/23 02:55:38;;;;;;;3.20;2.70;;;;;;;15.56;100.00;99061.13;109448;1253;72641;-75
2023/07/23 02:58:06;;;;;;;5.10;3.10;;;;;;;15.52;100.00;99064.52;109259;1253;61710;-73
2023/07/23 03:00:33;;;;;;;3.70;2.90;;;;;;;15.46;100.00;99066.30;109438;1253;58793;-74
2023/07/23 03:03:01;;;;;;;4.60;2.70;;;;;;;15.38;100.00;99062.83;109460;1254;72667;-73
2023/07/23 03:05:29;;;;;;;7.60;2.90;;;;;;;15.31;100.00;99066.32;109385;1253;66766;-74
2023/07/23 03:07:56;;;;;;;5.50;3.30;;;;;;;15.24;100.00;99066.55;109386;1253;72654;-73
2023/07/23 03:10:24;;;;;;;3.20;2.80;;;;;;;15.20;100.00;99073.23;109263;1255;60389;-73
2023/07/23 03:12:51;;;;;;;4.40;3.30;;;;;;;15.19;100.00;99073.89;109435;1253;58248;-74
2023/07/23 03:15:18;;;;;;;3.00;2.70;;;;;;;15.21;100.00;99074.23;109458;1253;73783;-74
2023/07/23 03:17:46;;;;;;;4.60;3.30;;;;;;;15.24;100.00;99075.89;109415;1253;65872;-73
2023/07/23 03:20:16;;;;;;;3.40;3.10;;;;;;;15.29;100.00;99077.00;109356;1253;71441;-75
2023/07/23 03:22:43;;;;;;;5.40;2.80;;;;;;;15.38;100.00;99079.13;109341;1254;60543;-73
2023/07/23 03:25:11;;;;;;;4.20;3.40;;;;;;;15.49;100.00;99079.81;109415;1253;60091;-73
2023/07/23 03:27:38;;;;;;;4.10;3.60;;;;;;;15.59;100.00;99079.79;109503;1253;72552;-73
2023/07/23 03:30:06;;;;;;;4.80;3.40;;;;;;;15.72;100.00;99077.05;109481;1253;67670;-74
2023/07/23 03:32:34;;;;;;;4.90;3.50;;;;;;;15.86;100.00;99080.98;109415;1252;72431;-72
2023/07/23 03:35:02;;;;;;;4.20;3.80;;;;;;;15.98;100.00;99080.52;109434;1253;61765;-74
2023/07/23 03:37:30;;;;;;;4.60;4.20;;;;;;;16.11;100.00;99084.70;109394;1253;60535;-72
2023/07/23 03:39:57;;;;;;;4.80;3.30;;;;;;;16.24;100.00;99082.45;109466;1253;73923;-74
2023/07/23 03:42:25;;;;;;;5.30;3.40;;;;;;;16.40;100.00;99088.90;109548;1256;67599;-72
2023/07/23 03:44:52;;;;;;;4.40;3.70;;;;;;;16.57;100.00;99081.30;109525;1252;73200;-74
2023/07/23 03:47:20;;;;;;;3.80;3.20;;;;;;;16.74;100.00;99076.55;109459;1253;61695;-72
2023/07/23 03:49:48;;;;;;;6.50;3.70;;;;;;;16.94;100.00;99074.62;109450;1254;60035;-71
2023/07/23 03:52:15;;;;;;;3.70;3.40;;;;;;;17.16;100.00;99077.18;109275;1252;72288;-75
2023/07/23 03:54:42;;;;;;;3.40;2.90;;;;;;;17.34;100.00;99075.95;109525;1252;66619;-74
2023/07/23 03:57:10;;;;;;;5.70;3.30;;;;;;;17.55;100.00;99073.84;109369;1253;72685;-72
2023/07/23 03:59:43;;;;;;;3.80;3.20;;;;;;;17.80;100.00;99075.70;109366;1253;60395;-74
2023/07/23 04:02:10;;;;;;;4.90;2.90;;;;;;;18.08;100.00;99074.30;109443;1254;58442;-76
2023/07/23 04:04:38;;;;;;;3.50;2.70;;;;;;;18.35;100.00;99073.58;109418;1253;73838;-75
2023/07/23 04:07:06;;;;;;;3.30;2.20;;;;;;;18.64;100.00;99073.37;109539;1253;66285;-76
2023/07/23 04:09:34;;;;;;;3.80;2.90;;;;;;;18.93;100.00;99074.77;109314;1253;73895;-76
2023/07/23 04:12:01;;;;;;;2.80;2.20;;;;;;;19.23;100.00;99074.67;109508;1253;58787;-78
2023/07/23 04:14:29;;;;;;;4.50;2.80;;;;;;;19.51;100.00;99076.95;109340;1257;60004;-75
2023/07/23 04:16:56;;;;;;;4.10;2.30;;;;;;;19.77;100.00;99072.62;109486;1254;73878;-72
2023/07/23 04:19:24;;;;;;;2.90;2.70;;;;;;;19.92;100.00;99074.75;109376;1253;68058;-73
2023/07/23 04:21:51;;;;;;;4.50;2.80;;;;;;;19.98;100.00;99073.16;109473;1254;73181;-72
2023/07/23 04:24:18;;;;;;;4.30;2.20;;;;;;;20.01;100.00;99070.30;109381;1253;60921;-74
2023/07/23 04:26:46;;;;;;;4.60;2.50;;;;;;;20.01;100.00;99073.67;109387;1253;58767;-72
2023/07/23 04:29:13;;;;;;;3.10;2.60;;;;;;;19.99;100.00;99080.63;109481;1253;72328;-72
2023/07/23 04:31:41;;;;;;;4.70;2.30;;;;;;;19.95;100.00;99083.36;109395;1254;67659;-72
2023/07/23 04:34:08;;;;;;;3.70;2.90;;;;;;;19.93;100.00;99087.73;109515;1253;72836;-72
2023/07/23 04:36:36;;;;;;;5.10;2.40;;;;;;;19.90;100.00;99087.63;109467;1253;58790;-76
2023/07/23 04:39:04;;;;;;;4.00;2.80;;;;;;;19.82;100.00;99086.37;109409;1254;62581;-73
2023/07/23 04:41:31;;;;;;;3.00;2.70;;;;;;;19.72;100.00;99084.51;109439;1253;73825;-73
2023/07/23 04:43:58;;;;;;;4.90;2.80;;;;;;;19.59;100.00;99082.31;109338;1253;66811;-75
2023/07/23 04:46:26;;;;;;;6.50;3.30;;;;;;;19.48;100.00;99087.66;109454;1254;72484;-75
2023/07/23 04:48:54;;;;;;;4.30;3.10;;;;;;;19.39;100.00;99090.04;109463;1254;59152;-73
2023/07/23 04:51:21;;;;;;;9.70;3.20;;;;;;;19.33;100.00;99093.32;109451;1254;60078;-72
2023/07/23 04:53:49;;;;;;;3.50;3.10;;;;;;;19.26;100.00;99094.29;109412;1253;72631;-73
2023/07/23 04:56:16;;;;;;;9.00;3.50;;;;;;;19.21;100.00;99092.67;109385;1254;67581;-75
2023/07/23 04:58:43;;;;;;;5.10;3.10;;;;;;;19.20;100.00;99094.05;109412;1254;71417;-74
2023/07/23 05:01:11;;;;;;;7.20;3.40;;;;;;;19.20;100.00;99090.57;109441;1254;59190;-77
2023/07/23 05:03:39;;;;;;;3.80;2.90;;;;;;;19.15;100.00;99095.89;109356;1254;60011;-77
2023/07/23 05:06:07;;;;;;;4.50;3.40;;;;;;;19.16;100.00;99097.16;109258;1254;73902;-75
2023/07/23 05:08:34;;;;;;;4.50;3.30;;;;;;;19.16;100.00;99099.31;109399;1254;67994;-77
2023/07/23 05:11:03;;;;;;;4.10;3.20;;;;;;;19.15;100.00;99098.59;109411;1257;72766;-76
2023/07/23 05:13:31;;;;;;;4.30;2.80;;;;;;;19.09;100.00;99099.10;109466;1254;60466;-74
2023/07/23 05:15:59;;;;;;;4.30;2.80;;;;;;;18.98;100.00;99098.73;109328;1253;60092;-76
2023/07/23 05:18:26;;;;;;;5.90;2.90;;;;;;;18.88;100.00;99102.58;109394;1254;73801;-75
2023/07/23 05:20:54;;;;;;;4.60;3.50;;;;;;;18.84;100.00;99100.11;109433;1254;67650;-76
2023/07/23 05:23:22;;;;;;;5.90;4.00;;;;;;;18.85;100.00;99105.36;109426;1254;72632;-77
2023/07/23 05:25:49;;;;;;;4.20;3.00;;;;;;;18.88;100.00;99104.61;109413;1254;60141;-75
2023/07/23 05:28:16;;;;;;;5.50;3.50;;;;;;;18.90;100.00;99105.75;109464;1254;58948;-77
2023/07/23 05:30:44;;;;;;;5.10;3.90;;;;;;;18.95;100.00;99108.93;109323;1254;73803;-75
2023/07/23 05:33:11;;;;;;;6.30;4.20;;;;;;;19.11;100.00;99113.16;109344;1252;67651;-77
2023/07/23 05:35:39;;;;;;;3.60;3.30;;;;;;;19.52;100.00;99108.92;109399;1254;72619;-74
2023/07/23 05:38:06;;;;;;;5.60;3.20;;;;;;;20.11;100.00;99109.65;109457;1257;60403;-76
2023/07/23 05:40:35;;;;;;;3.30;3.10;;;;;;;20.77;100.00;99110.02;109404;1254;60576;-77
2023/07/23 05:43:09;;;;;;;7.60;3.30;;;;;;;21.41;100.00;99103.09;109401;1253;72077;-75
2023/07/23 05:45:37;;;;;;;2.90;2.70;;;;;;;22.02;100.00;99097.80;109422;1253;67543;-78
2023/07/23 05:48:05;;;;;;;3.50;3.10;;;;;;;22.54;100.00;99093.98;109410;1253;71957;-76
2023/07/23 05:50:32;;;;;;;5.20;3.70;;;;;;;23.02;100.00;99095.12;109343;1254;58797;-77
2023/07/23 05:53:00;;;;;;;3.40;2.80;;;;;;;23.43;100.00;99092.38;109577;1254;58744;-74
2023/07/23 05:55:27;;;;;;;5.00;3.20;;;;;;;23.83;100.00;99087.77;109432;1253;72689;-75
2023/07/23 05:57:54;;;;;;;2.90;2.70;;;;;;;24.22;100.00;99088.20;109337;1253;66309;-78
2023/07/23 06:00:22;;;;;;;5.90;3.10;;;;;;;24.60;100.00;99087.24;109356;1254;72818;-79
2023/07/23 06:02:49;;;;;;;3.70;3.30;;;;;;;24.94;100.00;99088.87;109388;1254;58931;-74
2023/07/23 06:05:17;;;;;;;3.30;3.00;;;;;;;25.30;100.00;99090.69;109550;1254;60077;-77
2023/07/23 06:07:44;;;;;;;3.10;2.90;;;;;;;25.59;100.00;99093.20;109386;1254;73834;-76
2023/07/23 06:10:12;;;;;;;3.10;2.40;;;;;;;25.80;100.00;99093.78;109391;1253;67645;-77
2023/07/23 06:12:39;;;;;;;3.30;2.90;;;;;;;26.04;100.00;99093.91;109387;1254;72697;-76
2023/07/23 06:15:09;;;;;;;7.60;3.20;;;;;;;26.29;100.00;99087.41;109393;1254;60037;-77
2023/07/23 06:17:37;;;;;;;5.80;3.10;;;;;;;26.43;100.00;99087.61;109391;1254;60031;-77
2023/07/23 06:20:05;;;;;;;5.00;3.10;;;;;;;26.58;100.00;99086.97;109432;1254;73842;-76
2023/07/23 06:22:32;;;;;;;2.70;2.50;;;;;;;26.84;98.32;99087.95;109430;1253;67741;-74
2023/07/23 06:25:00;;;;;;;2.80;2.50;;;;;;;27.06;95.09;99087.21;109373;1254;73149;-74
2023/07/23 06:27:27;;;;;;;3.40;2.30;;;;;;;27.25;92.05;99090.14;109374;1254;60622;-78
2023/07/23 06:29:54;;;;;;;2.80;2.60;;;;;;;27.47;90.22;99091.02;109424;1254;60004;-74
2023/07/23 06:32:22;;;;;;;2.40;2.20;;;;;;;27.68;87.42;99096.77;109381;1254;73559;-76
2023/07/23 06:34:49;;;;;;;2.50;2.30;;;;;;;27.82;84.18;99096.45;109404;1253;66562;-76
2023/07/23 06:37:17;;;;;;;2.30;2.10;;;;;;;27.85;82.78;99094.83;109504;1254;73335;-76
2023/07/23 06:39:44;;;;;;;6.20;2.30;;;;;;;27.92;82.40;99095.49;109346;1254;60072;-75
2023/07/23 06:42:12;;;;;;;3.70;1.80;;;;;;;28.03;82.05;99093.73;109186;1253;59963;-78
2023/07/23 06:44:40;;;;;;;2.00;1.60;;;;;;;28.28;78.38;99096.52;109445;1255;72699;-74
2023/07/23 06:47:07;;;;;;;2.70;1.80;;;;;;;28.40;75.52;99099.11;109396;1253;65719;-75
2023/07/23 06:49:35;;;;;;;2.40;1.60;;;;;;;28.56;72.21;99097.77;109437;1254;72927;-73
2023/07/23 06:52:03;;;;;;;1.30;1.20;;;;;;;28.76;68.12;99100.05;109348;1254;58775;-78
2023/07/23 06:54:32;;;;;;;1.80;1.50;;;;;;;28.98;66.40;99100.45;109538;1254;60126;-75
2023/07/23 06:57:00;;;;;;;2.10;1.90;;;;;;;29.20;66.88;99097.30;109185;1254;73908;-74
2023/07/23 06:59:27;;;;;;;2.10;1.90;;;;;;;29.39;66.51;99094.45;109428;1254;67689;-74
2023/07/23 07:01:54;;;;;;;1.70;1.50;;;;;;;29.60;64.48;99095.10;109417;1253;72718;-76
2023/07/23 07:04:22;;;;;;;2.00;1.40;;;;;;;29.76;63.48;99092.38;109394;1254;60123;-76
2023/07/23 07:06:49;;;;;;;2.00;1.60;;;;;;;29.93;63.03;99090.86;109399;1254;58798;-77
2023/07/23 07:09:17;;;;;;;3.80;1.60;;;;;;;30.10;62.02;99095.16;109508;1253;73939;-77
2023/07/23 07:11:44;;;;;;;1.50;1.40;;;;;;;30.24;59.50;99093.46;109390;1254;67597;-77
2023/07/23 07:14:12;;;;;;;1.60;1.50;;;;;;;30.40;57.97;99087.82;109361;1254;71373;-74
2023/07/23 07:16:39;;;;;;;1.70;1.60;;;;;;;30.59;56.49;99087.28;109368;1254;60059;-76
2023/07/23 07:19:06;;;;;;;1.40;1.30;;;;;;;30.69;55.28;99089.96;109425;1253;58764;-75
2023/07/23 07:21:34;;;;;;;1.80;1.20;;;;;;;30.73;53.14;99091.78;109396;1254;73269;-76
2023/07/23 07:24:02;;;;;;;1.60;1.50;;;;;;;30.76;52.87;99092.64;109425;1252;66470;-75
2023/07/23 07:26:30;;;;;;;1.40;1.30;;;;;;;30.78;51.98;99090.71;109452;1254;71396;-73
2023/07/23 07:28:57;;;;;;;3.40;1.50;;;;;;;30.93;50.96;99088.66;109391;1254;58794;-77
2023/07/23 07:31:24;;;;;;;1.30;1.20;;;;;;;30.98;50.09;99091.25;109397;1253;60122;-76
2023/07/23 07:33:52;;;;;;;1.30;1.20;;;;;;;31.12;48.86;99087.27;109505;1254;73858;-75
2023/07/23 07:36:19;;;;;;;1.30;1.20;;;;;;;31.20;47.97;99088.48;109412;1253;67911;-76
2023/07/23 07:38:47;;;;;;;2.20;1.50;;;;;;;31.38;46.86;99085.25;109391;1253;70839;-75
2023/07/23 07:41:15;;;;;;;4.20;1.40;;;;;;;31.54;46.24;99086.66;109364;1253;60601;-78
2023/07/23 07:43:42;;;;;;;3.80;1.30;;;;;;;31.52;45.05;99086.93;109423;1253;60066;-77
2023/07/23 07:46:09;;;;;;;1.30;1.10;;;;;;;31.55;43.85;99082.05;109456;1253;73947;-74
2023/07/23 07:48:37;;;;;;;2.50;1.50;;;;;;;31.56;42.90;99079.19;109351;1252;67710;-76
2023/07/23 07:51:05;;;;;;;1.60;1.50;;;;;;;31.62;44.02;99081.39;109370;1252;74516;-72
2023/07/23 07:53:34;;;;;;;2.90;1.60;;;;;;;31.79;42.82;99084.55;109356;1253;60094;-77
2023/07/23 07:56:02;;;;;;;1.50;1.40;;;;;;;31.82;41.90;99088.09;109513;1252;59958;-77
2023/07/23 07:58:30;;;;;;;1.70;1.20;;;;;;;31.86;41.30;99087.30;109420;1254;73753;-78
2023/07/23 08:00:59;;;;;;;1.80;1.30;;;;;;;31.98;41.10;99086.63;109422;1253;67015;-77
2023/07/23 08:03:27;;;;;;;1.40;1.20;;;;;;;32.08;40.96;99083.11;109461;1253;72647;-77
2023/07/23 08:05:56;;;;;;;1.40;1.30;;;;;;;32.11;41.00;99073.27;109380;1253;60081;-77
2023/07/23 08:08:28;;;;;;;3.00;1.60;;;;;;;32.16;40.94;99079.86;109425;1254;60045;-78
2023/07/23 08:10:56;;;;;;;1.70;1.50;;;;;;;32.32;39.43;99074.53;109390;1253;73933;-75
2023/07/23 08:13:24;;;;;;;1.70;1.50;;;;;;;32.39;38.83;99078.82;109379;1254;67209;-75
2023/07/23 08:15:52;;;;;;;2.90;1.40;;;;;;;32.16;38.81;99082.08;109499;1252;71192;-78
2023/07/23 08:18:22;;;;;;;2.60;1.40;;;;;;;32.12;38.07;99085.73;109410;1253;60098;-77
2023/07/23 08:20:50;;;;;;;1.40;1.20;;;;;;;32.34;38.18;99078.77;109441;1252;58995;-78
2023/07/23 08:23:18;;;;;;;3.60;1.50;;;;;;;32.54;37.45;99076.02;109510;1253;73917;-77
2023/07/23 08:25:49;;;;;;;1.90;1.40;;;;;;;32.69;35.83;99077.96;109323;1252;66651;-79
2023/07/23 08:28:21;;;;;;;1.50;1.40;;;;;;;32.77;35.21;99077.33;109380;1253;74531;-75
2023/07/23 08:30:49;;;;;;;1.60;1.50;;;;;;;32.76;35.49;99078.31;109384;1254;60520;-74
2023/07/23 08:33:17;;;;;;;1.50;1.40;;;;;;;32.43;35.31;99073.71;109427;1253;58939;-76
2023/07/23 08:35:46;;;;;;;2.70;1.80;;;;;;;32.27;35.53;99072.06;109492;1253;73939;-79
2023/07/23 08:38:15;;;;;;;1.40;1.30;;;;;;;32.37;36.13;99072.25;109393;1253;67557;-79
2023/07/23 08:40:44;;;;;;;1.90;1.70;;;;;;;32.43;35.65;99077.58;109362;1253;72817;-77
2023/07/23 08:43:21;;;;;;;2.10;1.60;;;;;;;32.32;35.23;99076.64;109389;1253;60131;-76
2023/07/23 08:46:10;;;;;;;2.00;1.70;;;;;;;32.17;34.66;99071.91;109285;1254;60101;-74
2023/07/23 08:48:50;;;;;;;2.00;1.50;;;;;;;32.40;34.33;99066.48;109294;1252;73077;-77
2023/07/23 08:51:18;;;;;;;1.50;1.40;;;;;;;32.65;33.12;99063.62;109427;1253;67879;-79
2023/07/23 08:53:46;;;;;;;4.00;1.40;;;;;;;32.83;32.95;99065.23;109370;1254;74545;-77
2023/07/23 08:56:15;;;;;;;2.40;1.50;;;;;;;32.94;32.56;99073.18;109358;1252;58838;-70
2023/07/23 08:58:45;;;;;;;3.60;1.70;;;;;;;33.09;32.18;99071.59;109308;1253;60079;-75
2023/07/23 09:01:13;;;;;;;1.60;1.30;;;;;;;33.29;31.90;99072.39;109512;1253;74954;-78
2023/07/23 09:03:41;;;;;;;1.40;1.30;;;;;;;33.63;32.00;99074.08;109450;1253;66445;-74
2023/07/23 09:06:09;;;;;;;2.30;1.60;;;;;;;34.01;31.31;99069.52;109308;1254;71480;-74
2023/07/23 09:08:37;;;;;;;1.70;1.20;;;;;;;34.30;30.45;99061.36;109312;1253;60107;-77
2023/07/23 09:11:06;;;;;;;1.50;1.40;;;;;;;34.50;30.39;99065.45;109466;1252;60617;-77
2023/07/23 09:13:35;;;;;;;3.40;1.40;;;;;;;34.53;29.95;99064.23;109453;1252;73831;-73
2023/07/23 09:16:04;;;;;;;1.50;1.40;;;;;;;34.11;29.76;99067.05;109471;1253;67842;-75
2023/07/23 09:18:38;;;;;;;1.70;1.30;;;;;;;33.29;30.49;99071.09;109426;1252;72638;-75
2023/07/23 09:21:06;;;;;;;1.60;1.50;;;;;;;32.82;31.55;99067.15;109364;1254;60146;-81
2023/07/23 09:23:34;;;;;;;1.70;1.50;;;;;;;32.87;31.28;99064.22;109490;1252;60062;-77
2023/07/23 09:26:01;;;;;;;2.40;1.70;;;;;;;33.20;30.89;99065.69;109406;1253;73904;-80
2023/07/23 09:28:29;;;;;;;1.60;1.50;;;;;;;33.63;29.83;99062.65;109312;1253;66980;-77
2023/07/23 09:30:58;;;;;;;2.00;1.60;;;;;;;33.86;29.30;99059.59;109394;1253;72680;-75
2023/07/23 09:33:35;;;;;;;3.90;1.50;;;;;;;34.10;29.34;99060.73;109388;1253;58757;-73
2023/07/23 09:36:03;;;;;;;1.60;1.50;;;;;;;34.52;29.27;99062.51;109374;1253;60472;-75
2023/07/23 09:38:32;;;;;;;1.30;1.30;;;;;;;34.91;28.16;99062.48;109407;1253;73855;-73
2023/07/23 09:40:59;;;;;;;2.30;1.30;;;;;;;34.92;27.59;99058.17;109373;1253;67883;-76
2023/07/23 09:43:28;;;;;;;2.70;1.60;;;;;;;34.26;27.47;99066.02;109469;1252;71847;-74
2023/07/23 09:45:56;;;;;;;1.30;1.20;;;;;;;33.23;28.66;99069.96;109302;1252;60416;-72
2023/07/23 09:48:23;;;;;;;1.50;1.40;;;;;;;32.48;30.18;99066.02;109423;1253;60096;-74
2023/07/23 09:50:55;;;;;;;1.70;1.50;;;;;;;32.63;30.11;99065.83;109457;1252;72661;-76
2023/07/23 09:53:23;;;;;;;1.60;1.50;;;;;;;33.02;28.89;99064.79;109325;1253;67587;-73
2023/07/23 09:55:50;;;;;;;1.50;1.40;;;;;;;33.33;28.31;99070.90;109484;1252;72501;-73
2023/07/23 09:58:18;;;;;;;1.40;1.30;;;;;;;33.71;28.01;99071.33;109341;1254;59137;-76
2023/07/23 10:00:46;;;;;;;2.60;1.50;;;;;;;33.97;27.73;99072.91;109269;1253;60474;-75
2023/07/23 10:03:15;;;;;;;4.20;1.40;;;;;;;34.13;27.90;99073.70;109128;1253;73937;-80
2023/07/23 10:05:43;;;;;;;1.50;1.40;;;;;;;34.31;28.02;99074.63;109215;1254;67596;-72
2023/07/23 10:08:10;;;;;;;2.40;1.50;;;;;;;34.46;27.08;99067.81;109426;1252;72630;-69
2023/07/23 10:10:37;;;;;;;2.30;1.40;;;;;;;34.53;26.99;99071.19;109300;1253;58751;-69
2023/07/23 10:13:05;;;;;;;1.50;1.40;;;;;;;34.14;27.51;99073.65;109406;1253;58771;-69
2023/07/23 10:15:32;;;;;;;1.70;1.20;;;;;;;33.67;28.18;99074.87;109378;1252;72642;-70
2023/07/23 10:18:00;;;;;;;1.80;1.40;;;;;;;33.46;28.07;99076.91;109302;1254;67084;-70
2023/07/23 10:20:29;;;;;;;2.30;2.20;;;;;;;33.39;28.24;99077.16;109389;1253;72678;-70
2023/07/23 10:22:56;;;;;;;4.00;1.70;;;;;;;33.12;28.54;99074.92;109385;1252;60163;-70
2023/07/23 10:25:34;;;;;;;2.00;1.30;;;;;;;32.50;29.41;99072.94;109416;1253;58737;-70
2023/07/23 10:28:09;;;;;;;2.00;1.50;;;;;;;31.65;30.17;99072.00;109397;1253;72995;-66
2023/07/23 10:30:36;;;;;;;1.50;1.40;;;;;;;31.21;31.79;99073.73;109548;1252;67577;-67
2023/07/23 10:33:10;;;;;;;3.80;1.50;;;;;;;31.03;32.18;99067.77;109471;1252;74532;-73
2023/07/23 10:36:04;;;;;;;3.80;1.70;;;;;;;30.86;32.05;99076.80;109333;1253;58747;-70
2023/07/23 10:38:33;;;;;;;1.30;1.20;;;;;;;30.56;31.74;99075.32;109489;1252;58721;-70
2023/07/23 10:41:01;;;;;;;2.40;1.40;;;;;;;30.28;31.53;99074.09;109407;1252;73823;-68
2023/07/23 10:43:41;;;;;;;1.70;1.40;;;;;;;30.02;31.87;99074.54;109380;1253;67568;-70
2023/07/23 10:46:18;;;;;;;1.60;1.30;;;;;;;29.64;32.91;99078.27;109378;1253;72752;-72
2023/07/23 10:48:50;;;;;;;2.30;1.70;;;;;;;29.41;34.34;99076.58;109369;1254;59192;-71
2023/07/23 10:51:21;;;;;;;1.20;1.10;;;;;;;29.27;34.35;99078.95;109377;1253;60470;-71
2023/07/23 10:53:54;;;;;;;1.70;1.60;;;;;;;29.04;34.97;99077.86;109338;1253;73099;-75
2023/07/23 10:56:23;;;;;;;3.10;1.70;;;;;;;28.96;35.71;99079.75;109477;1252;67248;-74
2023/07/23 10:58:53;;;;;;;3.10;1.70;;;;;;;28.95;35.63;99076.21;109402;1252;71445;-71
2023/07/23 11:01:22;;;;;;;1.80;1.60;;;;;;;28.86;35.22;99076.09;109331;1253;58860;-72
2023/07/23 11:03:57;;;;;;;5.20;1.70;;;;;;;28.77;35.78;99072.39;109549;1252;59983;-69
2023/07/23 11:06:29;;;;;;;1.50;1.40;;;;;;;28.74;35.89;99071.80;109354;1253;73828;-70
2023/07/23 11:08:58;;;;;;;1.60;1.40;;;;;;;28.64;35.57;99073.92;109355;1253;67903;-70
2023/07/23 11:11:31;;;;;;;2.00;1.90;;;;;;;28.51;35.81;99075.73;109382;1253;70353;-68
2023/07/23 11:13:58;;;;;;;1.80;1.60;;;;;;;28.39;36.58;99070.02;109170;1254;60168;-69
2023/07/23 11:16:26;;;;;;;2.60;1.60;;;;;;;28.39;37.62;99067.33;109380;1253;59321;-69
2023/07/23 11:18:53;;;;;;;1.50;1.40;;;;;;;28.52;37.42;99067.95;109390;1254;72651;-69
2023/07/23 11:21:21;;;;;;;1.60;1.50;;;;;;;28.56;36.94;99065.27;109382;1253;66459;-68
2023/07/23 11:23:48;;;;;;;2.50;1.50;;;;;;;28.60;37.55;99067.73;109476;1252;71894;-67
2023/07/23 11:26:16;;;;;;;1.80;1.60;;;;;;;28.67;37.07;99066.80;109437;1253;61018;-66